Time;durP1;ratioP1;P1;durP2;ratioP2;P2;SDS_P1;SDS_P2;PMS_P1;PMS_P2;Temp;Humidity;BMP_temperature;BMP_pressure;BME280_temperature;BME280_humidity;BME280_pressure;Samples;Min_cycle;Max_cycle;Signal;HPM_P1;HPM_P2
2021/05/01 00:00:27;;;;;;;38.80;26.00;;;;;;;9.48;70.64;99963.31;1670933;85;25316;-84
2021/05/01 00:02:53;;;;;;;39.00;26.95;;;;;;;9.48;70.92;99955.41;1670532;85;28936;-81
2021/05/01 00:05:19;;;;;;;40.20;26.77;;;;;;;9.51;70.80;99953.28;1666508;84;27349;-85
2021/05/01 00:07:44;;;;;;;39.30;25.90;;;;;;;9.59;70.74;99953.02;1669072;85;22209;-81
2021/05/01 00:10:13;;;;;;;38.83;27.07;;;;;;;9.61;70.56;99955.81;1667183;85;26879;-84
2021/05/01 00:12:40;;;;;;;43.85;27.50;;;;;;;9.55;70.66;99956.42;1672962;83;21209;-82
2021/05/01 00:15:08;;;;;;;40.60;27.50;;;;;;;9.64;70.41;99957.32;1671049;84;21618;-81
2021/05/01 00:17:34;;;;;;;39.78;27.17;;;;;;;9.51;70.87;99965.64;1665815;84;21230;-81
2021/05/01 00:20:00;;;;;;;41.20;27.45;;;;;;;9.64;70.36;99963.41;1670173;84;21911;-82
2021/05/01 00:22:25;;;;;;;40.58;27.32;;;;;;;9.58;70.60;99977.20;1668118;85;26776;-81
2021/05/01 00:24:51;;;;;;;43.63;28.27;;;;;;;9.51;70.87;99970.41;1668700;84;25532;-82
2021/05/01 00:27:17;;;;;;;46.37;28.87;;;;;;;9.45;71.24;99972.84;1673607;84;28433;-82
2021/05/01 00:29:43;;;;;;;43.13;28.42;;;;;;;9.38;71.63;99969.16;1669363;84;26959;-82
2021/05/01 00:32:10;;;;;;;;;;;;;;;9.24;72.22;99967.39;1644356;85;21282;-82
2021/05/01 00:34:36;;;;;;;41.68;28.15;;;;;;;9.24;72.50;99963.44;1667257;84;20528;-83
2021/05/01 00:37:02;;;;;;;42.80;29.07;;;;;;;9.33;71.95;99961.70;1670201;84;23793;-84
2021/05/01 00:39:28;;;;;;;45.58;29.55;;;;;;;9.36;71.88;99966.67;1670298;84;21212;-85
2021/05/01 00:41:54;;;;;;;46.85;29.90;;;;;;;9.32;72.04;99971.91;1670485;84;26773;-83
2021/05/01 00:44:19;;;;;;;47.55;29.72;;;;;;;9.30;72.10;99972.55;1668270;84;21792;-83
2021/05/01 00:46:46;;;;;;;41.18;28.70;;;;;;;9.17;72.67;99982.17;1672056;85;26954;-85
2021/05/01 00:49:11;;;;;;;42.75;29.23;;;;;;;9.27;72.33;99980.77;1674348;84;21241;-84
2021/05/01 00:51:37;;;;;;;45.00;30.00;;;;;;;9.21;72.49;99980.88;1668467;83;28432;-83
2021/05/01 00:54:03;;;;;;;41.45;28.70;;;;;;;9.09;73.16;99983.39;1662566;84;26890;-84
2021/05/01 00:56:29;;;;;;;44.58;30.97;;;;;;;8.96;73.75;99981.98;1669535;84;21314;-80
2021/05/01 00:58:56;;;;;;;45.17;31.15;;;;;;;9.04;73.43;99979.07;1642985;85;26315;-81
2021/05/01 01:01:23;;;;;;;43.50;29.87;;;;;;;9.11;73.23;99980.14;1664943;84;21235;-82
2021/05/01 01:03:49;;;;;;;44.33;28.70;;;;;;;9.14;73.24;99978.02;1672285;85;21236;-81
2021/05/01 01:06:15;;;;;;;44.18;29.87;;;;;;;9.20;73.14;99982.34;1669941;85;26823;-81
2021/05/01 01:08:43;;;;;;;44.03;30.40;;;;;;;9.26;72.84;99983.90;1674671;84;21283;-81
2021/05/01 01:11:09;;;;;;;51.15;31.33;;;;;;;9.36;72.49;99967.17;1663495;83;21198;-80
2021/05/01 01:13:34;;;;;;;47.73;32.10;;;;;;;9.40;72.34;99967.19;1668695;84;25707;-84
2021/05/01 01:16:00;;;;;;;47.20;30.88;;;;;;;9.40;72.26;99961.92;1669447;84;28624;-80
2021/05/01 01:18:26;;;;;;;45.28;30.75;;;;;;;9.45;72.09;99960.98;1671223;85;26860;-81
2021/05/01 01:20:52;;;;;;;47.15;31.45;;;;;;;9.38;72.43;99973.11;1665779;85;21983;-82
2021/05/01 01:23:18;;;;;;;46.90;32.33;;;;;;;9.38;72.56;99983.16;1669631;85;26927;-80
2021/05/01 01:25:43;;;;;;;46.35;31.60;;;;;;;9.38;72.58;99981.02;1659737;85;24661;-82
2021/05/01 01:28:09;;;;;;;48.28;32.65;;;;;;;9.50;72.34;99987.70;1674351;84;28349;-80
2021/05/01 01:30:35;;;;;;;49.30;32.28;;;;;;;9.61;71.97;99991.41;1656787;84;26750;-82
2021/05/01 01:33:07;;;;;;;56.30;32.98;;;;;;;9.48;72.34;99998.90;1659194;84;22457;-80
2021/05/01 01:35:34;;;;;;;47.67;31.02;;;;;;;9.58;72.16;100003.57;1675435;85;21564;-82
2021/05/01 01:38:00;;;;;;;49.70;32.42;;;;;;;9.58;71.95;100011.48;1666847;84;21587;-85
2021/05/01 01:40:26;;;;;;;48.95;31.80;;;;;;;9.67;71.64;100011.06;1669083;84;28383;-82
2021/05/01 01:42:52;;;;;;;48.55;32.67;;;;;;;9.73;71.27;100003.86;1658605;85;21190;-81
2021/05/01 01:45:22;;;;;;;46.55;31.77;;;;;;;9.73;71.22;100008.31;1664048;85;21324;-83
2021/05/01 01:47:48;;;;;;;48.33;31.97;;;;;;;9.73;71.18;100014.91;1669622;84;21213;-81
2021/05/01 01:50:17;;;;;;;48.87;31.85;;;;;;;9.69;71.26;100019.17;1674328;84;25452;-80
2021/05/01 01:52:43;;;;;;;46.08;31.15;;;;;;;9.76;71.12;100015.91;1671289;84;21635;-81
2021/05/01 01:55:11;;;;;;;46.63;30.48;;;;;;;9.75;71.20;99999.75;1670350;84;26818;-80
2021/05/01 01:57:37;;;;;;;43.48;29.63;;;;;;;9.73;71.25;99995.13;1668583;84;22413;-81
2021/05/01 02:00:13;;;;;;;47.38;30.72;;;;;;;9.73;71.37;100010.95;1668791;85;21670;-82
2021/05/01 02:02:42;;;;;;;47.43;31.35;;;;;;;9.66;71.61;100012.88;1669503;84;21249;-82
2021/05/01 02:05:09;;;;;;;50.17;33.10;;;;;;;9.74;71.38;100012.11;1666438;85;21742;-81
2021/05/01 02:07:35;;;;;;;51.68;33.65;;;;;;;9.64;71.70;100008.23;1668283;85;21205;-82
2021/05/01 02:10:01;;;;;;;50.03;32.63;;;;;;;9.75;71.55;100011.61;1668226;84;22142;-80
2021/05/01 02:12:27;;;;;;;51.30;32.45;;;;;;;9.77;71.33;100010.48;1670595;83;26881;-82
2021/05/01 02:14:53;;;;;;;50.63;32.93;;;;;;;9.77;71.13;99995.98;1671758;84;21285;-84
2021/05/01 02:17:19;;;;;;;51.28;31.95;;;;;;;9.81;71.11;99997.81;1670788;84;28465;-81
2021/05/01 02:19:45;;;;;;;49.70;31.68;;;;;;;9.79;71.26;99999.75;1669976;84;26723;-81
2021/05/01 02:22:10;;;;;;;49.63;31.25;;;;;;;9.81;71.27;100003.09;1669756;84;21857;-80
2021/05/01 02:24:36;;;;;;;47.78;32.20;;;;;;;9.75;71.35;100014.25;1670002;84;28025;-80
2021/05/01 02:27:02;;;;;;;46.18;31.33;;;;;;;9.72;71.57;100006.65;1671243;84;25987;-79
2021/05/01 02:29:28;;;;;;;45.95;32.65;;;;;;;9.82;71.36;100002.08;1669152;84;28586;-81
2021/05/01 02:31:53;;;;;;;50.33;31.93;;;;;;;9.84;71.38;100008.05;1657509;85;27972;-80
2021/05/01 02:34:19;;;;;;;51.75;32.73;;;;;;;9.89;71.13;99998.67;1670840;84;21836;-80
2021/05/01 02:36:47;;;;;;;44.18;30.25;;;;;;;9.92;71.17;99990.95;1669248;84;26806;-80
2021/05/01 02:39:16;;;;;;;47.78;30.50;;;;;;;10.06;70.87;99982.95;1664535;85;21232;-79
2021/05/01 02:41:42;;;;;;;47.00;29.25;;;;;;;10.10;70.95;99986.09;1672917;84;21177;-80
2021/05/01 02:44:07;;;;;;;47.20;31.23;;;;;;;10.21;70.78;99985.84;1662652;86;27027;-82
2021/05/01 02:46:33;;;;;;;46.42;29.75;;;;;;;10.28;70.55;99988.16;1653383;86;22556;-83
2021/05/01 02:48:59;;;;;;;45.90;29.37;;;;;;;10.23;70.76;99998.38;1647378;84;26904;-81
2021/05/01 02:51:25;;;;;;;43.23;29.42;;;;;;;10.28;71.24;99998.72;1667371;84;25896;-89
2021/05/01 02:53:50;;;;;;;41.42;27.77;;;;;;;10.37;70.95;99995.16;1665021;84;28846;-79
2021/05/01 02:56:16;;;;;;;48.58;29.77;;;;;;;10.18;72.35;99998.03;1666605;84;27641;-81
2021/05/01 02:58:42;;;;;;;47.67;30.70;;;;;;;10.16;73.15;99994.23;1667189;84;22335;-82
2021/05/01 03:01:08;;;;;;;44.05;28.75;;;;;;;10.22;73.25;99978.23;1672500;85;27415;-81
2021/05/01 03:03:33;;;;;;;43.02;29.18;;;;;;;10.44;72.78;99980.01;1669149;84;25909;-81
2021/05/01 03:05:59;;;;;;;42.00;28.77;;;;;;;10.32;73.40;99972.36;1673707;84;29701;-81
2021/05/01 03:08:25;;;;;;;44.42;30.15;;;;;;;10.31;73.76;99973.83;1670458;84;26915;-82
2021/05/01 03:10:51;;;;;;;41.65;28.10;;;;;;;10.34;73.63;99978.32;1670017;84;21917;-82
2021/05/01 03:13:16;;;;;;;41.50;27.93;;;;;;;10.47;73.04;99987.14;1674870;83;26928;-83
2021/05/01 03:15:42;;;;;;;41.33;28.07;;;;;;;10.46;73.11;99992.08;1675254;83;25679;-81
2021/05/01 03:18:09;;;;;;;39.40;27.90;;;;;;;10.53;72.92;99997.53;1671550;84;28883;-83
2021/05/01 03:20:35;;;;;;;40.73;28.60;;;;;;;10.64;72.63;99994.59;1670008;84;21178;-83
2021/05/01 03:23:01;;;;;;;40.17;28.42;;;;;;;10.67;72.40;99994.27;1673802;84;21254;-83
2021/05/01 03:25:27;;;;;;;43.42;29.75;;;;;;;10.66;72.37;99990.00;1671698;84;21235;-83
2021/05/01 03:27:53;;;;;;;38.02;26.90;;;;;;;10.73;71.97;99976.46;1670124;84;25947;-84
2021/05/01 03:30:20;;;;;;;38.92;27.70;;;;;;;10.69;71.90;99975.16;1667341;85;21617;-81
2021/05/01 03:32:46;;;;;;;42.67;29.30;;;;;;;10.68;72.01;99979.27;1672106;84;21146;-82
2021/05/01 03:35:14;;;;;;;41.53;27.87;;;;;;;10.46;72.82;99987.30;1673282;84;21238;-81
2021/05/01 03:37:39;;;;;;;37.88;26.20;;;;;;;10.56;72.60;99984.83;1669426;84;21206;-81
2021/05/01 03:40:07;;;;;;;39.78;26.82;;;;;;;10.65;72.46;99983.55;1668305;84;25282;-81
2021/05/01 03:42:33;;;;;;;36.60;26.68;;;;;;;10.66;72.40;99992.64;1668819;84;21581;-83
2021/05/01 03:44:59;;;;;;;39.35;27.10;;;;;;;10.79;71.95;99988.20;1670055;84;21272;-85
2021/05/01 03:47:25;;;;;;;36.53;26.27;;;;;;;10.56;72.95;99981.38;1671037;84;21844;-82
2021/05/01 03:49:50;;;;;;;35.40;25.72;;;;;;;10.66;72.62;99979.44;1668119;85;26825;-79
2021/05/01 03:52:16;;;;;;;34.48;25.52;;;;;;;10.81;72.10;99978.30;1665633;84;25348;-85
2021/05/01 03:54:42;;;;;;;34.60;25.62;;;;;;;10.87;71.89;99978.16;1661091;85;28456;-81
2021/05/01 03:57:07;;;;;;;36.20;25.72;;;;;;;10.90;71.73;99975.19;1662006;85;26793;-80
2021/05/01 03:59:33;;;;;;;38.00;26.12;;;;;;;10.93;71.64;99970.90;1666759;84;22398;-81
2021/05/01 04:01:59;;;;;;;37.75;25.32;;;;;;;10.99;71.42;99963.64;1663940;84;26837;-80
2021/05/01 04:04:27;;;;;;;34.15;25.23;;;;;;;10.93;71.48;99957.69;1662253;85;25413;-81
2021/05/01 04:06:52;;;;;;;36.45;26.05;;;;;;;10.90;71.38;99952.23;1666586;84;21631;-82
2021/05/01 04:09:18;;;;;;;39.38;26.05;;;;;;;10.91;71.38;99950.43;1670591;84;27388;-80
2021/05/01 04:11:44;;;;;;;37.53;25.82;;;;;;;10.77;71.73;99959.82;1663888;85;23491;-81
2021/05/01 04:14:09;;;;;;;38.48;27.25;;;;;;;10.90;71.52;99961.98;1668590;84;26790;-79
2021/05/01 04:16:35;;;;;;;34.30;24.37;;;;;;;10.71;71.87;99963.11;1667946;85;26549;-78
2021/05/01 04:19:01;;;;;;;36.77;25.45;;;;;;;10.75;71.65;99959.98;1666173;85;29434;-82
2021/05/01 04:21:27;;;;;;;36.10;24.95;;;;;;;10.71;71.75;99961.28;1667456;85;26909;-80
2021/05/01 04:23:53;;;;;;;36.40;25.55;;;;;;;10.71;71.69;99967.88;1670494;84;21881;-81
2021/05/01 04:26:21;;;;;;;37.73;26.07;;;;;;;10.63;72.04;99963.91;1666516;84;26826;-78
2021/05/01 04:28:52;;;;;;;36.38;25.68;;;;;;;10.55;72.42;99961.23;1666092;84;21715;-78
2021/05/01 04:31:20;;;;;;;34.75;25.77;;;;;;;10.50;72.84;99952.97;1661467;85;21169;-78
2021/05/01 04:33:45;;;;;;;37.17;26.23;;;;;;;10.48;72.74;99958.41;1677176;83;21124;-84
2021/05/01 04:36:11;;;;;;;38.53;26.75;;;;;;;10.46;72.69;99964.86;1670966;84;22134;-79
2021/05/01 04:38:40;;;;;;;38.92;26.12;;;;;;;10.39;73.33;99969.92;1663030;84;26837;-81
2021/05/01 04:41:06;;;;;;;40.12;25.80;;;;;;;10.36;73.35;99957.89;1661427;85;21193;-80
2021/05/01 04:43:32;;;;;;;37.08;26.50;;;;;;;10.38;73.02;99963.83;1662225;85;28801;-82
2021/05/01 04:45:58;;;;;;;38.13;26.10;;;;;;;10.46;72.72;99959.58;1665738;84;21209;-78
2021/05/01 04:48:24;;;;;;;38.17;26.48;;;;;;;10.37;73.02;99956.89;1664802;83;21936;-87
2021/05/01 04:50:52;;;;;;;39.92;26.12;;;;;;;10.44;72.84;99961.53;1668344;84;26883;-79
2021/05/01 04:53:18;;;;;;;39.20;25.95;;;;;;;10.33;73.24;99972.73;1667696;84;21112;-79
2021/05/01 04:55:44;;;;;;;35.35;25.32;;;;;;;10.19;73.95;99974.59;1671647;84;28890;-86
2021/05/01 04:58:09;;;;;;;36.08;26.95;;;;;;;10.36;73.46;99986.93;1672579;84;21259;-86
2021/05/01 05:00:35;;;;;;;37.93;26.37;;;;;;;10.31;73.62;99983.89;1671732;84;22430;-78
2021/05/01 05:03:01;;;;;;;36.23;26.57;;;;;;;10.48;73.28;99992.73;1669840;84;27362;-84
2021/05/01 05:05:27;;;;;;;36.83;25.37;;;;;;;10.56;73.05;99983.52;1670765;84;25355;-80
2021/05/01 05:07:52;;;;;;;35.90;25.32;;;;;;;10.60;72.96;99980.08;1668917;85;28425;-80
2021/05/01 05:10:18;;;;;;;36.48;26.73;;;;;;;10.69;72.68;99983.55;1670038;84;26852;-84
2021/05/01 05:12:46;;;;;;;36.90;26.85;;;;;;;10.61;72.89;99988.31;1670710;84;22314;-82
2021/05/01 05:15:12;;;;;;;34.90;24.82;;;;;;;10.58;73.28;99982.03;1682096;84;21220;-79
2021/05/01 05:17:38;;;;;;;36.88;26.50;;;;;;;10.29;74.27;99991.14;1687244;84;25930;-82
2021/05/01 05:20:06;;;;;;;37.30;26.40;;;;;;;10.44;73.95;99987.93;1682857;84;28448;-81
2021/05/01 05:22:32;;;;;;;38.20;27.37;;;;;;;10.64;73.39;99991.95;1681045;84;21180;-79
2021/05/01 05:24:58;;;;;;;35.08;25.62;;;;;;;10.43;74.10;99987.61;1681369;84;21965;-83
2021/05/01 05:27:24;;;;;;;34.78;25.30;;;;;;;10.35;74.46;99985.27;1679962;84;27873;-80
2021/05/01 05:29:51;;;;;;;35.65;26.27;;;;;;;10.48;75.61;99985.31;1682880;83;25953;-81
2021/05/01 05:32:22;;;;;;;37.03;27.07;;;;;;;10.38;75.24;99983.63;1686707;83;21172;-82
2021/05/01 05:34:48;;;;;;;38.10;26.50;;;;;;;10.41;75.11;99992.55;1682823;84;21493;-80
2021/05/01 05:37:14;;;;;;;36.28;25.95;;;;;;;10.34;75.47;99995.48;1682739;84;21159;-79
2021/05/01 05:39:41;;;;;;;37.73;26.73;;;;;;;10.47;75.25;100003.45;1683166;84;21200;-82
2021/05/01 05:42:08;;;;;;;37.15;26.70;;;;;;;10.44;75.20;100003.77;1681698;84;21179;-79
2021/05/01 05:44:34;;;;;;;35.05;25.60;;;;;;;10.44;75.35;100002.45;1682268;83;21209;-80
2021/05/01 05:47:00;;;;;;;34.63;25.12;;;;;;;10.41;75.54;100003.11;1683366;84;26880;-82
2021/05/01 05:49:26;;;;;;;36.48;25.15;;;;;;;10.44;75.44;100001.98;1684999;83;21925;-80
2021/05/01 05:51:52;;;;;;;33.42;24.98;;;;;;;10.60;74.98;100009.13;1681289;83;21632;-83
2021/05/01 05:54:21;;;;;;;35.25;25.48;;;;;;;10.59;75.08;100004.81;1682480;84;25814;-81
2021/05/01 05:56:47;;;;;;;33.45;23.92;;;;;;;10.62;74.74;100004.50;1681258;84;21231;-82
2021/05/01 05:59:12;;;;;;;35.73;25.27;;;;;;;10.61;74.76;100010.75;1684783;83;21180;-82
2021/05/01 06:01:39;;;;;;;32.65;24.12;;;;;;;10.68;74.79;100019.70;1681285;84;21131;-82
2021/05/01 06:04:13;;;;;;;38.05;26.25;;;;;;;10.75;74.52;100015.45;1674575;85;21236;-85
2021/05/01 06:06:42;;;;;;;33.35;23.92;;;;;;;10.84;74.25;100022.06;1692949;82;21307;-82
2021/05/01 06:09:06;;;;;;;;;;;;;;;10.83;74.30;100027.00;1662212;84;21106;-82
2021/05/01 06:11:32;;;;;;;35.00;25.48;;;;;;;10.90;74.22;100022.23;1642969;86;20168;-81
2021/05/01 06:14:03;;;;;;;34.55;25.65;;;;;;;11.08;73.43;100027.91;1652440;84;22108;-81
2021/05/01 06:16:30;;;;;;;33.45;24.75;;;;;;;11.16;73.05;100021.81;1658390;86;21210;-81
2021/05/01 06:18:56;;;;;;;34.78;25.05;;;;;;;11.12;73.12;100020.81;1660056;86;21205;-80
2021/05/01 06:21:22;;;;;;;36.35;24.32;;;;;;;11.10;73.30;100024.09;1651599;86;28512;-81
2021/05/01 06:23:48;;;;;;;34.53;25.50;;;;;;;10.99;73.70;100023.09;1652195;86;27065;-81
2021/05/01 06:26:13;;;;;;;36.98;25.17;;;;;;;11.04;73.57;100022.11;1655802;85;21201;-81
2021/05/01 06:28:39;;;;;;;32.98;24.35;;;;;;;11.23;73.28;100018.83;1657593;85;27137;-81
2021/05/01 06:31:06;;;;;;;34.85;25.72;;;;;;;11.35;72.94;100021.48;1652943;86;25255;-83
2021/05/01 06:33:34;;;;;;;34.80;25.12;;;;;;;11.40;72.64;100019.16;1661011;84;21174;-80
2021/05/01 06:36:00;;;;;;;38.20;25.85;;;;;;;11.49;72.44;100028.75;1653676;84;21278;-85
2021/05/01 06:38:28;;;;;;;31.80;23.47;;;;;;;11.45;72.46;100024.80;1657454;84;21287;-82
2021/05/01 06:40:58;;;;;;;36.20;25.12;;;;;;;11.39;72.70;100044.45;1655622;84;21253;-81
2021/05/01 06:44:31;;;;;;;35.80;25.88;;;;;;;11.42;72.38;100041.00;1656838;86;21763;-82
2021/05/01 06:46:35;;;;;;;37.95;25.30;;;;;;;11.43;72.51;100049.75;1653821;84;21093;-83
2021/05/01 06:49:03;;;;;;;32.35;23.98;;;;;;;11.45;72.56;100055.69;1652315;84;21653;-83
2021/05/01 06:51:28;;;;;;;;;;;;;;;11.57;72.19;100042.98;1649637;85;21314;-81
2021/05/01 06:53:57;;;;;;;32.35;23.55;;;;;;;11.68;71.87;100041.32;1651960;85;26846;-80
2021/05/01 06:56:23;;;;;;;34.80;24.50;;;;;;;11.59;71.95;100042.31;1627002;86;21211;-81
2021/05/01 06:58:48;;;;;;;32.40;23.95;;;;;;;11.52;72.20;100045.30;1627121;87;28486;-81
2021/05/01 07:01:14;;;;;;;31.05;23.27;;;;;;;11.48;72.30;100039.50;1652494;85;26948;-81
2021/05/01 07:03:45;;;;;;;32.98;22.58;;;;;;;11.59;71.90;100042.31;1628080;86;21209;-81
2021/05/01 07:06:15;;;;;;;31.73;23.22;;;;;;;11.65;71.74;100045.62;1648457;85;21219;-80
2021/05/01 07:08:41;;;;;;;33.80;23.60;;;;;;;11.64;71.57;100044.80;1646477;85;21253;-83
2021/05/01 07:11:07;;;;;;;31.33;23.50;;;;;;;11.56;71.80;100049.25;1620165;87;28483;-83
2021/05/01 07:13:33;;;;;;;37.00;24.85;;;;;;;11.70;71.54;100043.32;1649221;84;21189;-79
2021/05/01 07:16:02;;;;;;;34.40;23.65;;;;;;;11.68;71.69;100045.28;1647993;85;21046;-82
2021/05/01 07:18:26;;;;;;;;;;;;;;;11.69;71.64;100041.66;1647258;85;21233;-84
2021/05/01 07:20:52;;;;;;;31.60;21.50;;;;;;;11.74;71.51;100043.30;1651094;85;20514;-82
2021/05/01 07:23:18;;;;;;;36.10;23.05;;;;;;;11.79;71.28;100042.33;1649210;85;21013;-81
2021/05/01 07:25:44;;;;;;;34.43;23.30;;;;;;;11.71;71.84;100042.31;1649501;85;20934;-81
2021/05/01 07:28:13;;;;;;;32.98;23.05;;;;;;;11.82;71.40;100040.67;1649356;85;21207;-81
2021/05/01 07:30:42;;;;;;;38.00;24.10;;;;;;;11.94;70.71;100039.02;1647460;85;21745;-81
2021/05/01 07:33:13;;;;;;;30.75;22.05;;;;;;;12.08;70.55;100036.19;1649754;85;21250;-78
2021/05/01 07:35:39;;;;;;;33.53;22.22;;;;;;;12.36;69.51;100041.90;1651838;85;21279;-80
2021/05/01 07:38:07;;;;;;;32.28;21.77;;;;;;;12.51;68.33;100041.52;1635072;86;21046;-80
2021/05/01 07:40:35;;;;;;;30.70;20.72;;;;;;;12.47;68.68;100039.38;1620674;86;21248;-80
2021/05/01 07:43:00;;;;;;;30.25;20.62;;;;;;;12.70;68.06;100038.13;1627527;85;21262;-82
2021/05/01 07:45:26;;;;;;;29.75;20.23;;;;;;;12.68;68.19;100020.27;1653124;85;25451;-81
2021/05/01 07:48:00;;;;;;;30.72;21.40;;;;;;;12.70;68.02;100028.86;1641812;85;21162;-81
2021/05/01 07:50:26;;;;;;;32.13;21.55;;;;;;;12.67;67.91;100027.37;1646850;85;21465;-81
2021/05/01 07:52:52;;;;;;;30.92;21.60;;;;;;;12.81;67.66;100028.97;1670399;84;21158;-81
2021/05/01 07:55:19;;;;;;;31.42;20.15;;;;;;;12.84;67.35;100025.47;1669955;84;21242;-81
2021/05/01 07:57:44;;;;;;;25.75;19.02;;;;;;;12.93;67.15;100024.42;1666359;84;21209;-83
2021/05/01 08:00:13;;;;;;;30.60;20.62;;;;;;;12.98;66.72;100033.69;1669002;85;29910;-84
2021/05/01 08:02:40;;;;;;;28.62;20.35;;;;;;;12.52;67.97;100027.29;1670966;84;21593;-80
2021/05/01 08:05:07;;;;;;;29.40;20.15;;;;;;;12.96;67.06;100035.19;1671405;84;21375;-81
2021/05/01 08:07:33;;;;;;;27.55;19.92;;;;;;;12.98;66.94;100036.34;1671941;84;21240;-82
2021/05/01 08:09:59;;;;;;;28.07;19.48;;;;;;;12.86;67.01;100027.43;1670880;85;20993;-81
2021/05/01 08:12:25;;;;;;;31.00;21.50;;;;;;;13.07;66.59;100026.01;1670276;84;21120;-80
2021/05/01 08:14:50;;;;;;;27.05;18.45;;;;;;;12.95;66.95;100030.06;1668538;84;21710;-81
2021/05/01 08:17:16;;;;;;;27.67;19.12;;;;;;;12.89;66.77;100032.89;1670441;84;21371;-85
2021/05/01 08:19:42;;;;;;;27.62;18.65;;;;;;;12.98;66.59;100023.90;1670472;85;20980;-78
2021/05/01 08:22:08;;;;;;;24.75;17.10;;;;;;;12.97;66.64;100024.89;1672659;84;21922;-83
2021/05/01 08:24:36;;;;;;;24.77;17.05;;;;;;;13.04;66.53;100025.03;1671456;85;20986;-81
2021/05/01 08:27:02;;;;;;;25.55;16.73;;;;;;;13.06;66.42;100021.19;1672535;84;21244;-82
2021/05/01 08:29:28;;;;;;;22.48;16.52;;;;;;;13.23;66.19;100023.74;1669758;84;21976;-82
2021/05/01 08:31:57;;;;;;;22.90;16.45;;;;;;;13.18;66.08;100018.16;1671266;84;21651;-80
2021/05/01 08:34:23;;;;;;;21.12;14.93;;;;;;;13.21;65.83;100019.94;1666278;84;21213;-83
2021/05/01 08:36:50;;;;;;;23.75;15.72;;;;;;;13.07;66.00;100013.57;1667883;84;20948;-83
2021/05/01 08:39:15;;;;;;;20.30;15.13;;;;;;;13.10;66.77;100011.08;1673504;84;21276;-81
2021/05/01 08:41:41;;;;;;;21.10;14.78;;;;;;;13.15;67.17;100007.39;1683913;83;21194;-85
2021/05/01 08:44:10;;;;;;;20.32;14.83;;;;;;;13.18;67.40;100005.70;1652947;84;48677;-82
2021/05/01 08:46:36;;;;;;;;;;;;;;;13.16;67.69;100006.87;1683932;84;21160;-81
2021/05/01 08:49:03;;;;;;;21.52;13.68;;;;;;;13.02;68.14;100005.80;1643623;85;20321;-82
2021/05/01 08:51:29;;;;;;;22.00;14.13;;;;;;;13.07;68.23;100011.43;1668962;84;21305;-82
2021/05/01 08:53:54;;;;;;;19.07;14.13;;;;;;;13.00;69.38;100009.14;1671562;84;21730;-81
2021/05/01 08:56:20;;;;;;;19.25;13.28;;;;;;;13.05;69.62;100004.13;1669135;84;22553;-81
2021/05/01 08:58:48;;;;;;;20.48;14.40;;;;;;;13.29;68.48;100005.28;1669141;85;21654;-81
2021/05/01 09:01:15;;;;;;;18.37;13.25;;;;;;;13.28;68.19;100011.61;1672597;85;21225;-81
2021/05/01 09:03:43;;;;;;;19.48;14.53;;;;;;;13.15;68.69;100012.69;1670359;85;21217;-81
2021/05/01 09:06:10;;;;;;;21.82;14.00;;;;;;;13.16;69.12;100015.67;1666831;84;21210;-81
2021/05/01 09:08:40;;;;;;;19.27;14.33;;;;;;;13.19;68.26;100023.28;1668543;84;21584;-83
2021/05/01 09:11:07;;;;;;;17.92;13.35;;;;;;;13.37;68.63;100019.02;1670301;84;21271;-80
2021/05/01 09:13:33;;;;;;;21.15;14.07;;;;;;;13.29;69.35;100022.52;1669785;84;21234;-86
2021/05/01 09:16:09;;;;;;;20.55;13.40;;;;;;;13.31;69.47;100022.86;1670426;84;20987;-79
2021/05/01 09:18:55;;;;;;;18.02;13.75;;;;;;;13.26;69.67;100022.88;1670969;84;21332;-80
2021/05/01 09:21:26;;;;;;;20.45;14.07;;;;;;;13.34;68.27;100026.52;1667232;85;21683;-81
2021/05/01 09:23:53;;;;;;;18.37;13.28;;;;;;;13.33;68.14;100032.78;1673066;83;21190;-80
2021/05/01 09:26:22;;;;;;;16.60;11.85;;;;;;;13.36;67.81;100036.44;1674123;83;21213;-79
2021/05/01 09:28:52;;;;;;;17.42;12.95;;;;;;;13.50;67.96;100040.99;1640818;85;21252;-79
2021/05/01 09:31:18;;;;;;;19.32;13.85;;;;;;;13.45;67.98;100038.02;1670037;84;21228;-82
2021/05/01 09:33:49;;;;;;;;;;;;;;;13.14;67.71;100046.01;1674158;84;21250;-82
2021/05/01 09:36:24;;;;;;;17.98;12.55;;;;;;;13.35;67.61;100037.45;1668947;84;20298;-82
2021/05/01 09:39:01;;;;;;;18.73;13.38;;;;;;;13.42;66.99;100033.08;1669288;85;21234;-82
2021/05/01 09:41:27;;;;;;;20.50;13.32;;;;;;;13.43;67.51;100037.39;1665922;84;22299;-79
2021/05/01 09:44:11;;;;;;;16.93;12.43;;;;;;;13.39;67.50;100032.10;1668829;85;21759;-79
2021/05/01 09:46:43;;;;;;;17.05;12.58;;;;;;;13.37;67.98;100024.83;1670948;85;21260;-80
2021/05/01 09:49:19;;;;;;;17.52;12.85;;;;;;;13.37;68.31;100020.86;1669407;84;21225;-79
2021/05/01 09:51:49;;;;;;;19.02;13.70;;;;;;;13.24;67.87;100023.56;1670924;84;21226;-81
2021/05/01 09:54:24;;;;;;;17.20;12.78;;;;;;;13.20;68.74;100009.51;1655110;84;21269;-79
2021/05/01 09:56:50;;;;;;;17.80;12.58;;;;;;;13.35;68.36;100009.61;1659953;84;22081;-83
2021/05/01 09:59:16;;;;;;;18.07;13.10;;;;;;;13.11;68.53;100003.42;1658070;85;27662;-85
2021/05/01 10:01:42;;;;;;;23.65;13.93;;;;;;;13.24;68.78;100002.34;1659551;85;21241;-81
2021/05/01 10:04:15;;;;;;;18.35;12.70;;;;;;;13.14;69.74;100001.75;1662990;85;21151;-82
2021/05/01 10:06:46;;;;;;;17.27;12.53;;;;;;;13.24;69.59;100003.67;1654458;84;21209;-82
2021/05/01 10:09:11;;;;;;;17.60;12.60;;;;;;;13.32;69.62;100008.61;1657619;85;22041;-82
2021/05/01 10:11:37;;;;;;;19.42;12.88;;;;;;;13.31;69.53;100004.30;1613878;85;21173;-83
2021/05/01 10:14:03;;;;;;;16.45;12.35;;;;;;;13.31;69.86;100006.95;1659512;85;21627;-81
2021/05/01 10:16:29;;;;;;;17.27;12.55;;;;;;;13.37;69.81;100012.39;1662384;84;21003;-81
2021/05/01 10:19:12;;;;;;;17.15;12.60;;;;;;;13.21;71.11;100017.28;1665241;84;21066;-81
2021/05/01 10:21:41;;;;;;;18.30;12.90;;;;;;;13.17;71.98;100014.66;1664070;84;21273;-82
2021/05/01 10:24:08;;;;;;;17.73;12.58;;;;;;;13.18;72.92;100011.02;1660462;85;21225;-82
2021/05/01 10:26:42;;;;;;;17.73;12.73;;;;;;;13.24;72.68;100012.95;1659212;85;21338;-83
2021/05/01 10:29:09;;;;;;;19.42;12.95;;;;;;;13.38;72.27;100013.23;1659009;85;21299;-82
2021/05/01 10:31:53;;;;;;;18.40;11.80;;;;;;;13.48;71.18;100011.14;1662880;84;21771;-84
2021/05/01 10:34:14;;;;;;;18.27;12.70;;;;;;;13.60;70.18;100017.67;1663289;84;21731;-80
2021/05/01 10:36:41;;;;;;;16.15;12.35;;;;;;;13.70;70.01;100009.96;1632857;85;27186;-80
2021/05/01 10:39:09;;;;;;;15.35;11.83;;;;;;;13.77;69.63;100009.58;1654367;85;21236;-82
2021/05/01 10:41:36;;;;;;;16.00;11.68;;;;;;;13.72;69.98;100010.59;1651493;85;21162;-80
2021/05/01 10:44:05;;;;;;;14.03;10.50;;;;;;;13.67;70.41;100011.65;1661613;84;21201;-83
2021/05/01 10:46:42;;;;;;;14.87;11.30;;;;;;;13.65;70.96;100011.83;1661881;85;21221;-83
2021/05/01 10:49:09;;;;;;;15.30;11.28;;;;;;;13.63;71.42;100015.98;1651411;85;21198;-81
2021/05/01 10:51:38;;;;;;;;;;;;;;;13.64;70.82;100015.48;1666579;84;21617;-82
2021/05/01 10:54:22;;;;;;;15.72;10.63;;;;;;;13.53;71.58;100018.56;1672012;84;20294;-82
2021/05/01 10:56:53;;;;;;;15.80;11.28;;;;;;;13.43;72.19;100022.80;1665883;85;21237;-79
2021/05/01 10:59:25;;;;;;;13.98;10.53;;;;;;;13.31;71.70;100028.98;1665208;84;21993;-83
2021/05/01 11:01:52;;;;;;;15.75;11.15;;;;;;;13.36;71.93;100022.69;1669672;84;21573;-79
2021/05/01 11:04:29;;;;;;;15.80;10.98;;;;;;;13.39;71.87;100018.84;1667181;84;21207;-79
2021/05/01 11:07:12;;;;;;;15.70;11.40;;;;;;;13.53;71.39;100020.73;1669058;84;21265;-79
2021/05/01 11:09:49;;;;;;;18.35;11.12;;;;;;;13.47;71.61;100013.49;1671162;84;21202;-80
2021/05/01 11:12:20;;;;;;;16.57;11.53;;;;;;;13.55;71.20;100006.78;1670456;84;26651;-82
2021/05/01 11:15:06;;;;;;;14.45;11.00;;;;;;;13.43;71.33;100002.39;1668989;85;21509;-82
2021/05/01 11:17:49;;;;;;;14.68;10.58;;;;;;;13.59;71.42;100005.91;1668012;84;21289;-81